Tribune, Canada
Current Conditions -  °F | °C
As of 5:15 AM on Friday 28 Nov 2014 (Local Time) from KD50 Reporting Station
Overcast Overcast  
Wind Chill: -11°   Ceiling: 1100
Heat Index:   Visibility: 10mi
Dew Point:   Wind: 20mph
Humidity: 92%   Direction: 90°E
Pressure: 29.78"   Gusts: NA
Location:  49.25°N, 103.82°W
Report Text: KD50 281115Z AUTO 09017KT 10SM FEW003 OVC011 M13/M14 A2978 RMK AO2
Loading
Personal Weather Stations






























Interactive Weather Map New forecast layout! Learn more

10-Day Weather Forecast

Advertisements
Track Severe Weather on mobile